createdAt,value
2022-08-25T00:02:16.196Z,43.30
2022-08-25T00:04:45.036Z,43.40
2022-08-25T00:07:20.566Z,43.50
2022-08-25T00:09:47.422Z,43.70
2022-08-25T00:12:14.190Z,44.00
2022-08-25T00:14:42.963Z,44.20
2022-08-25T00:17:09.850Z,44.20
2022-08-25T00:19:37.928Z,44.20
2022-08-25T00:22:05.442Z,44.20
2022-08-25T00:24:33.171Z,44.40
2022-08-25T00:27:01.679Z,44.40
2022-08-25T00:29:29.042Z,44.40
2022-08-25T00:31:56.371Z,44.40
2022-08-25T00:34:25.592Z,44.40
2022-08-25T00:36:52.614Z,44.50
2022-08-25T00:39:21.199Z,44.60
2022-08-25T00:41:49.178Z,44.70
2022-08-25T00:44:18.842Z,44.80
2022-08-25T00:46:47.980Z,44.90
2022-08-25T00:49:22.459Z,45.00
2022-08-25T00:51:57.976Z,45.20
2022-08-25T00:54:27.303Z,45.30
2022-08-25T00:56:55.017Z,45.30
2022-08-25T00:59:23.198Z,45.40
2022-08-25T01:01:50.842Z,45.60
2022-08-25T01:04:18.056Z,45.70
2022-08-25T01:06:45.237Z,45.80
2022-08-25T01:09:13.835Z,46.00
2022-08-25T01:11:41.828Z,46.10
2022-08-25T01:14:08.964Z,46.20
2022-08-25T01:16:37.393Z,46.30
2022-08-25T01:19:05.309Z,46.40
2022-08-25T01:21:37.306Z,46.30
2022-08-25T01:24:04.245Z,46.40
2022-08-25T01:26:32.370Z,46.40
2022-08-25T01:29:18.696Z,46.40
2022-08-25T01:31:45.722Z,46.30
2022-08-25T01:34:13.280Z,46.30
2022-08-25T01:36:42.062Z,46.00
2022-08-25T01:39:09.429Z,45.80
2022-08-25T01:41:36.696Z,46.10
2022-08-25T01:44:05.936Z,46.20
2022-08-25T01:46:39.205Z,46.20
2022-08-25T01:49:06.871Z,46.30
2022-08-25T01:51:35.295Z,46.50
2022-08-25T01:54:02.038Z,46.50
2022-08-25T01:56:28.800Z,46.50
2022-08-25T01:58:55.569Z,46.50
2022-08-25T02:01:23.559Z,46.50
2022-08-25T02:03:51.973Z,46.50
2022-08-25T02:06:20.970Z,46.50
2022-08-25T02:33:31.761Z,48.70
2022-08-25T02:36:00.235Z,48.70
2022-08-25T02:38:28.122Z,48.70
2022-08-25T02:40:59.818Z,48.50
2022-08-25T02:43:28.558Z,48.60
2022-08-25T02:45:59.432Z,48.70
2022-08-25T02:48:26.349Z,48.90
2022-08-25T02:50:53.345Z,49.10
2022-08-25T02:53:21.460Z,49.20
2022-08-25T02:55:48.564Z,49.30
2022-08-25T02:58:15.675Z,49.40
2022-08-25T03:00:42.719Z,49.60
2022-08-25T03:03:10.196Z,49.70
2022-08-25T03:05:37.114Z,49.80
2022-08-25T03:08:05.341Z,49.90
2022-08-25T03:10:32.380Z,50.00
2022-08-25T03:12:59.342Z,50.20
2022-08-25T03:15:27.738Z,50.40
2022-08-25T03:17:58.648Z,50.70
2022-08-25T03:20:28.464Z,50.90
2022-08-25T03:22:55.402Z,51.00
2022-08-25T03:25:41.097Z,51.10
2022-08-25T03:28:08.499Z,51.40
2022-08-25T03:30:35.474Z,51.70
2022-08-25T03:33:02.348Z,51.90
2022-08-25T03:35:29.986Z,52.10
2022-08-25T03:37:59.131Z,52.30
2022-08-25T03:40:27.192Z,52.40
2022-08-25T03:42:55.480Z,52.60
2022-08-25T03:45:22.781Z,52.70
2022-08-25T03:47:50.604Z,52.90
2022-08-25T03:50:19.138Z,53.10
2022-08-25T03:52:50.560Z,53.30
2022-08-25T06:53:06.369Z,36.10
2022-08-25T06:55:35.165Z,35.90
2022-08-25T06:58:03.501Z,35.60
2022-08-25T07:00:32.055Z,35.30
2022-08-25T07:03:01.113Z,35.00
2022-08-25T07:05:40.850Z,34.60
2022-08-25T07:08:11.908Z,34.20
2022-08-25T07:10:39.032Z,33.90
2022-08-25T07:13:05.936Z,33.80
2022-08-25T07:15:32.748Z,33.40
2022-08-25T07:17:59.523Z,33.20
2022-08-25T07:23:13.151Z,32.30
2022-08-25T07:25:39.931Z,31.70
2022-08-25T07:28:06.765Z,31.60
2022-08-25T07:30:36.160Z,31.40
2022-08-25T07:33:06.661Z,31.50
2022-08-25T07:35:37.556Z,31.00
2022-08-25T07:38:06.209Z,30.90
2022-08-25T07:40:37.161Z,30.60
2022-08-25T07:43:06.350Z,30.50
2022-08-25T07:45:35.457Z,30.70
2022-08-25T07:48:07.403Z,30.40
2022-08-25T07:50:34.605Z,30.30
2022-08-25T07:53:01.609Z,30.20
2022-08-25T07:55:30.223Z,30.20
2022-08-25T07:57:59.732Z,30.40
2022-08-25T08:00:27.951Z,30.90
2022-08-25T08:02:55.038Z,31.00
2022-08-25T08:05:23.799Z,30.70
2022-08-25T08:07:51.211Z,30.50
2022-08-25T08:10:53.924Z,30.50
2022-08-25T08:13:07.429Z,30.60
2022-08-25T08:15:34.796Z,30.30
2022-08-25T08:18:02.090Z,30.10
2022-08-25T08:20:42.524Z,30.20
2022-08-25T08:23:10.550Z,29.70
2022-08-25T08:25:37.491Z,29.30
2022-08-25T08:28:04.486Z,28.80
2022-08-25T08:30:36.615Z,28.50
2022-08-25T08:33:10.211Z,28.00
2022-08-25T08:35:38.727Z,27.60
2022-08-25T08:38:13.510Z,28.40
2022-08-25T08:41:10.222Z,28.80
2022-08-25T08:43:37.350Z,28.30
2022-08-25T08:46:07.593Z,28.40
2022-08-25T08:48:48.949Z,28.50
2022-08-25T08:51:24.681Z,28.30
2022-08-25T08:54:20.830Z,28.50
2022-08-25T08:56:53.421Z,27.90
2022-08-25T08:59:30.763Z,28.30
2022-08-25T09:02:04.006Z,28.10
2022-08-25T09:04:57.997Z,27.60
2022-08-25T09:07:32.359Z,27.40
2022-08-25T09:09:59.317Z,26.90
2022-08-25T09:12:37.569Z,26.70
2022-08-25T09:15:47.691Z,26.50
2022-08-25T09:18:28.367Z,26.90
2022-08-25T09:21:12.249Z,26.70
2022-08-25T09:23:56.542Z,26.20
2022-08-25T09:26:36.417Z,25.80
2022-08-25T09:29:16.844Z,25.40
2022-08-25T09:31:45.160Z,25.00
2022-08-25T09:34:28.487Z,25.10
2022-08-25T09:36:55.309Z,24.90
2022-08-25T09:39:23.972Z,24.50
2022-08-25T09:41:56.592Z,24.40
2022-08-25T09:44:43.940Z,24.10
2022-08-25T09:47:20.544Z,24.60
2022-08-25T09:50:05.747Z,24.80
2022-08-25T09:52:37.214Z,24.80
2022-08-25T09:55:15.936Z,24.00
2022-08-25T09:57:42.736Z,24.20
2022-08-25T10:00:36.770Z,24.40
2022-08-25T10:03:11.863Z,24.30
2022-08-25T10:05:49.992Z,24.20
2022-08-25T10:08:32.350Z,24.60
2022-08-25T10:11:01.405Z,24.60
2022-08-25T10:13:41.707Z,24.30
2022-08-25T10:16:24.817Z,24.40
2022-08-25T10:19:30.507Z,24.70
2022-08-25T10:22:20.531Z,24.50
2022-08-25T10:24:47.503Z,24.70
2022-08-25T10:27:23.798Z,24.40
2022-08-25T10:29:53.675Z,24.40
2022-08-25T10:32:26.851Z,24.40
2022-08-25T10:34:56.321Z,24.80
2022-08-25T10:37:41.763Z,25.00
2022-08-25T10:40:40.973Z,25.00
2022-08-25T10:43:26.464Z,25.10
2022-08-25T10:46:00.691Z,24.60
2022-08-25T10:48:39.737Z,25.60
2022-08-25T10:51:09.628Z,25.70
2022-08-25T10:53:39.188Z,25.40
2022-08-25T10:56:17.329Z,25.20
2022-08-25T10:58:57.037Z,25.00
2022-08-25T11:01:43.632Z,25.40
2022-08-25T11:04:36.541Z,25.60
2022-08-25T11:07:05.886Z,25.80
2022-08-25T11:09:38.731Z,26.00
2022-08-25T11:12:27.201Z,25.80
2022-08-25T11:14:59.141Z,25.90
2022-08-25T11:17:40.275Z,26.10
2022-08-25T11:20:16.327Z,26.10
2022-08-25T11:23:11.330Z,26.20
2022-08-25T11:25:42.218Z,26.30
2022-08-25T11:28:42.770Z,26.00
2022-08-25T11:31:10.423Z,25.80
2022-08-25T11:33:39.014Z,25.60
2022-08-25T11:36:29.399Z,25.50
2022-08-25T11:39:31.174Z,25.50
2022-08-25T11:42:14.972Z,25.50
2022-08-25T11:45:00.058Z,25.70
2022-08-25T11:47:50.174Z,25.80
2022-08-25T11:50:30.177Z,25.70
2022-08-25T11:53:03.934Z,25.60
2022-08-25T11:55:36.814Z,25.80
2022-08-25T11:58:33.403Z,25.90
2022-08-25T12:01:03.357Z,25.70
2022-08-25T12:03:36.305Z,25.40
2022-08-25T12:06:22.026Z,25.60
2022-08-25T12:09:00.915Z,25.60
2022-08-25T12:11:46.444Z,25.00
2022-08-25T12:14:22.293Z,24.80
2022-08-25T12:16:51.963Z,24.40
2022-08-25T12:19:26.380Z,24.80
2022-08-25T12:22:15.856Z,25.50
2022-08-25T12:24:48.298Z,25.60
2022-08-25T12:27:34.249Z,25.30
2022-08-25T12:30:18.391Z,24.80
2022-08-25T12:33:06.233Z,24.80
2022-08-25T12:35:38.275Z,24.90
2022-08-25T12:38:09.100Z,24.40
2022-08-25T12:40:35.963Z,24.30
2022-08-25T12:43:04.947Z,24.60
2022-08-25T12:45:38.058Z,24.80
2022-08-25T12:48:24.279Z,25.00
2022-08-25T12:51:15.103Z,25.20
2022-08-25T12:53:53.395Z,25.00
2022-08-25T12:56:23.204Z,25.00
2022-08-25T12:59:02.238Z,25.60
2022-08-25T13:01:47.807Z,25.60
2022-08-25T13:04:19.143Z,25.50
2022-08-25T13:07:24.357Z,25.60
2022-08-25T13:10:13.284Z,25.70
2022-08-25T13:12:44.250Z,25.50
2022-08-25T13:15:25.707Z,24.90
2022-08-25T13:17:52.794Z,24.30
2022-08-25T13:20:24.697Z,23.70
2022-08-25T13:22:57.581Z,23.50
2022-08-25T13:25:32.462Z,23.50
2022-08-25T13:28:03.816Z,23.50
2022-08-25T13:30:36.553Z,23.40
2022-08-25T13:33:20.535Z,23.00
2022-08-25T13:36:13.113Z,23.10
2022-08-25T13:38:40.046Z,23.20
2022-08-25T13:41:09.503Z,23.30
2022-08-25T13:43:38.116Z,23.30
2022-08-25T13:46:05.742Z,23.40
2022-08-25T13:48:32.525Z,23.20
2022-08-25T13:51:18.452Z,23.40
2022-08-25T13:54:00.612Z,23.70
2022-08-25T13:56:38.511Z,23.80
2022-08-25T13:59:20.169Z,24.00
2022-08-25T14:01:49.962Z,24.00
2022-08-25T14:04:21.985Z,24.00
2022-08-25T14:06:49.661Z,23.80
2022-08-25T14:09:17.991Z,23.60
2022-08-25T14:11:44.859Z,23.60
2022-08-25T14:14:31.148Z,23.40
2022-08-25T14:17:12.035Z,23.10
2022-08-25T14:19:48.980Z,23.00
2022-08-25T14:22:16.031Z,23.20
2022-08-25T14:24:43.989Z,23.30
2022-08-25T14:27:11.903Z,23.40
2022-08-25T14:29:41.161Z,23.40
2022-08-25T14:32:10.011Z,23.60
2022-08-25T14:34:38.415Z,23.60
2022-08-25T14:37:11.261Z,23.60
2022-08-25T14:39:44.046Z,23.50
2022-08-25T14:42:13.008Z,23.60
2022-08-25T14:44:42.353Z,23.30
2022-08-25T14:47:10.239Z,23.30
2022-08-25T14:49:40.632Z,23.30
2022-08-25T14:52:18.979Z,23.30
2022-08-25T14:54:50.416Z,23.70
2022-08-25T14:57:17.895Z,24.00
2022-08-25T14:59:45.230Z,24.20
2022-08-25T15:02:20.118Z,24.30
2022-08-25T15:04:55.616Z,24.20
2022-08-25T15:07:41.626Z,24.00
2022-08-25T15:10:09.386Z,24.00
2022-08-25T15:12:47.465Z,24.00
2022-08-25T15:15:15.517Z,23.80
2022-08-25T15:17:47.426Z,23.80
2022-08-25T15:20:16.800Z,23.80
2022-08-25T15:22:45.517Z,23.80
2022-08-25T15:25:12.774Z,24.00
2022-08-25T15:27:39.992Z,24.20
2022-08-25T15:30:07.614Z,24.40
2022-08-25T15:32:34.763Z,24.40
2022-08-25T15:35:02.736Z,24.50
2022-08-25T15:37:32.065Z,24.50
2022-08-25T15:39:59.573Z,24.60
2022-08-25T15:42:26.883Z,24.70
2022-08-25T15:44:54.313Z,24.60
2022-08-25T15:47:21.715Z,24.50
2022-08-25T15:49:48.810Z,24.60
2022-08-25T15:52:16.057Z,24.50
2022-08-25T15:54:42.949Z,24.70
2022-08-25T15:57:16.872Z,24.90
2022-08-25T15:59:52.507Z,25.00
2022-08-25T16:02:20.753Z,25.00
2022-08-25T16:04:47.775Z,25.10
2022-08-25T16:07:14.758Z,25.10
2022-08-25T16:09:41.895Z,24.80
2022-08-25T16:12:08.986Z,24.50
2022-08-25T16:14:37.286Z,24.50
2022-08-25T16:17:05.322Z,24.50
2022-08-25T16:19:32.301Z,24.60
2022-08-25T16:21:59.199Z,24.70
2022-08-25T16:24:26.907Z,24.70
2022-08-25T16:26:56.016Z,24.90
2022-08-25T16:29:23.540Z,25.00
2022-08-25T16:31:53.341Z,24.90
2022-08-25T16:34:24.300Z,25.00
2022-08-25T16:36:52.315Z,25.10
2022-08-25T16:39:19.963Z,25.10
2022-08-25T16:41:47.655Z,24.90
2022-08-25T16:44:14.506Z,25.00
2022-08-25T16:46:44.293Z,25.00
2022-08-25T16:49:12.189Z,25.00
2022-08-25T16:51:39.624Z,25.10
2022-08-25T16:54:25.697Z,25.00
2022-08-25T16:56:54.719Z,25.10
2022-08-25T16:59:23.512Z,25.00
2022-08-25T17:01:51.110Z,25.00
2022-08-25T17:04:17.978Z,25.00
2022-08-25T17:06:49.344Z,25.10
2022-08-25T17:09:22.798Z,25.10
2022-08-25T17:11:54.173Z,25.10
2022-08-25T17:14:21.251Z,25.10
2022-08-25T17:16:50.652Z,25.00
2022-08-25T17:19:17.849Z,25.00
2022-08-25T17:21:48.374Z,25.10
2022-08-25T17:24:17.219Z,25.00
2022-08-25T17:26:46.146Z,25.10
2022-08-25T17:29:13.032Z,25.20
2022-08-25T17:31:40.287Z,25.20
2022-08-25T17:34:08.719Z,25.20
2022-08-25T17:36:35.517Z,25.10
2022-08-25T17:39:03.207Z,24.90
2022-08-25T17:41:30.195Z,24.90
2022-08-25T17:43:57.238Z,24.90
2022-08-25T17:46:27.473Z,25.00
2022-08-25T17:48:54.957Z,25.10
2022-08-25T17:51:21.859Z,25.30
2022-08-25T17:53:49.276Z,25.30
2022-08-25T17:56:20.877Z,25.30
2022-08-25T17:58:48.115Z,25.30
2022-08-25T18:01:16.877Z,25.40
2022-08-25T18:03:44.264Z,25.50
2022-08-25T18:06:16.352Z,25.60
2022-08-25T18:08:44.155Z,26.60
2022-08-25T18:11:11.481Z,28.00
2022-08-25T18:13:38.345Z,27.90
2022-08-25T18:16:05.880Z,27.90
2022-08-25T18:18:34.653Z,27.90
2022-08-25T18:21:01.864Z,27.90
2022-08-25T18:23:28.774Z,28.10
2022-08-25T18:26:00.859Z,28.30
2022-08-25T18:28:28.941Z,28.40
2022-08-25T18:30:56.272Z,28.50
2022-08-25T18:33:23.115Z,28.70
2022-08-25T18:35:49.828Z,28.90
2022-08-25T18:38:37.544Z,29.20
2022-08-25T18:41:05.745Z,29.30
2022-08-25T18:43:33.984Z,29.30
2022-08-25T18:46:01.780Z,29.30
2022-08-25T18:48:28.602Z,29.50
2022-08-25T18:50:56.603Z,29.80
2022-08-25T18:53:36.735Z,29.90
2022-08-25T18:56:04.836Z,30.30
2022-08-25T18:58:31.719Z,30.20
2022-08-25T19:00:58.654Z,30.30
2022-08-25T19:03:25.406Z,30.60
2022-08-25T19:05:57.059Z,30.80
2022-08-25T19:08:24.688Z,30.70
2022-08-25T19:10:53.296Z,30.70
2022-08-25T19:13:22.404Z,30.80
2022-08-25T19:15:51.323Z,31.00
2022-08-25T19:18:18.717Z,31.20
2022-08-25T19:20:52.926Z,31.50
2022-08-25T19:23:19.746Z,32.30
2022-08-25T19:25:46.699Z,33.10
2022-08-25T19:28:13.985Z,33.00
2022-08-25T19:30:50.029Z,33.30
2022-08-25T19:33:42.774Z,33.70
2022-08-25T19:36:06.339Z,34.00
2022-08-25T19:38:36.610Z,34.10
2022-08-25T19:41:14.071Z,34.30
2022-08-25T19:43:55.826Z,34.40
2022-08-25T19:46:32.843Z,34.70
2022-08-25T19:49:06.865Z,34.80
2022-08-25T19:51:35.017Z,35.00
2022-08-25T19:54:10.378Z,35.20
2022-08-25T19:56:38.077Z,35.40
2022-08-25T19:59:11.262Z,35.60
2022-08-25T20:01:38.954Z,35.70
2022-08-25T20:04:07.330Z,36.20
2022-08-25T20:06:34.153Z,36.40
2022-08-25T20:09:02.603Z,36.60
2022-08-25T20:11:29.491Z,36.80
2022-08-25T20:13:59.310Z,37.00
2022-08-25T20:16:29.922Z,37.20
2022-08-25T20:18:56.687Z,37.30
2022-08-25T20:21:24.271Z,37.50
2022-08-25T20:24:09.558Z,37.80
2022-08-25T20:26:36.420Z,37.90
2022-08-25T20:29:05.066Z,38.00
2022-08-25T20:31:32.376Z,38.40
2022-08-25T20:34:02.851Z,38.70
2022-08-25T20:36:29.908Z,38.90
2022-08-25T20:38:59.097Z,39.00
2022-08-25T20:41:26.216Z,39.10
2022-08-25T20:43:53.114Z,39.20
2022-08-25T20:46:20.150Z,39.40
2022-08-25T20:48:47.255Z,39.70
2022-08-25T20:51:18.431Z,39.70
2022-08-25T20:53:45.800Z,39.90
2022-08-25T20:56:14.708Z,39.90
2022-08-25T20:58:42.001Z,40.00
2022-08-25T21:01:10.237Z,40.20
2022-08-25T21:03:37.526Z,40.20
2022-08-25T21:06:09.349Z,40.30
2022-08-25T21:08:38.906Z,40.60
2022-08-25T21:11:12.279Z,40.80
2022-08-25T21:13:39.323Z,40.80
2022-08-25T21:16:06.892Z,41.10
2022-08-25T21:18:34.982Z,41.30
2022-08-25T21:21:11.151Z,41.30
2022-08-25T21:23:42.157Z,41.40
2022-08-25T21:26:15.637Z,41.50
2022-08-25T21:28:47.836Z,41.60
2022-08-25T21:31:18.256Z,41.70
2022-08-25T21:33:48.078Z,41.90
2022-08-25T21:36:21.121Z,42.20
2022-08-25T21:38:48.037Z,42.40
2022-08-25T21:41:16.481Z,42.60
2022-08-25T21:43:44.970Z,42.90
2022-08-25T21:46:17.445Z,43.20
2022-08-25T21:48:46.613Z,43.30
2022-08-25T21:51:14.833Z,43.40
2022-08-25T21:53:41.708Z,43.50
2022-08-25T21:56:10.283Z,43.70
2022-08-25T21:58:37.941Z,43.90
2022-08-25T22:01:06.016Z,44.00
2022-08-25T22:03:38.556Z,44.10
2022-08-25T22:06:09.537Z,44.30
2022-08-25T22:08:39.522Z,44.50
2022-08-25T22:11:07.107Z,44.70
2022-08-25T22:13:34.694Z,45.00
2022-08-25T22:16:01.435Z,45.20
2022-08-25T22:18:29.331Z,45.40
2022-08-25T22:20:57.851Z,45.60
2022-08-25T22:23:28.330Z,45.90
2022-08-25T22:25:55.684Z,46.00
2022-08-25T22:28:23.195Z,46.20
2022-08-25T22:30:50.586Z,46.40
2022-08-25T22:33:17.627Z,46.40
2022-08-25T22:35:44.704Z,46.50
2022-08-25T22:38:12.455Z,46.50
2022-08-25T22:40:39.937Z,46.50
2022-08-25T22:43:07.948Z,46.70
2022-08-25T22:45:37.922Z,46.80
2022-08-25T22:48:05.531Z,46.80
2022-08-25T22:50:36.127Z,46.70
2022-08-25T22:53:02.917Z,46.70
2022-08-25T22:55:30.947Z,46.60
2022-08-25T22:57:57.677Z,46.60
2022-08-25T23:00:25.064Z,46.50
2022-08-25T23:02:55.527Z,46.60
2022-08-25T23:05:23.039Z,46.90
2022-08-25T23:07:50.591Z,47.00
2022-08-25T23:10:17.553Z,47.00
2022-08-25T23:12:44.302Z,46.80
2022-08-25T23:15:11.818Z,46.60
2022-08-25T23:17:38.677Z,46.80
2022-08-25T23:20:25.946Z,46.80
2022-08-25T23:22:53.604Z,46.80
2022-08-25T23:25:20.686Z,46.80
2022-08-25T23:27:47.843Z,46.70
2022-08-25T23:30:18.662Z,46.70
2022-08-25T23:32:45.425Z,46.90
2022-08-25T23:35:14.855Z,47.10
2022-08-25T23:37:41.639Z,47.10
2022-08-25T23:40:10.285Z,47.10
2022-08-25T23:42:37.322Z,47.30
2022-08-25T23:45:04.357Z,47.30
2022-08-25T23:47:31.364Z,47.60
2022-08-25T23:49:58.697Z,47.70
2022-08-25T23:52:27.355Z,47.90
2022-08-25T23:54:54.478Z,48.20
2022-08-25T23:57:21.233Z,48.30
2022-08-25T23:59:48.903Z,48.90
